Time;durP1;ratioP1;P1;durP2;ratioP2;P2;SDS_P1;SDS_P2;PMS_P1;PMS_P2;Temp;Humidity;BMP_temperature;BMP_pressure;BME280_temperature;BME280_humidity;BME280_pressure;Samples;Min_cycle;Max_cycle;Signal;HPM_P1;HPM_P2
2022/02/13 00:01:35;;;;;;;;;10.50;10.00;;;;;20.33;32.75;101679.59;5076485;27;52626;-45
2022/02/13 00:04:01;;;;;;;;;8.75;8.75;;;;;20.31;32.97;101681.69;5074924;28;51234;-47
2022/02/13 00:06:26;;;;;;;;;8.00;7.25;;;;;20.30;33.17;101674.47;5091854;27;51207;-45
2022/02/13 00:08:53;;;;;;;;;8.50;8.50;;;;;20.29;33.03;101661.78;5077198;27;51431;-44
2022/02/13 00:11:19;;;;;;;;;7.75;7.75;;;;;20.27;32.89;101652.88;5076225;27;51596;-45
2022/02/13 00:13:44;;;;;;;;;9.00;9.00;;;;;20.26;33.21;101651.19;5092084;27;51112;-46
2022/02/13 00:16:10;;;;;;;;;10.00;8.25;;;;;20.25;33.13;101649.50;5076798;27;51066;-44
2022/02/13 00:18:35;;;;;;;;;12.00;8.00;;;;;20.24;33.16;101643.13;5076525;27;51247;-45
2022/02/13 00:21:00;;;;;;;;;8.75;7.00;;;;;20.24;32.80;101634.03;5076032;27;52847;-47
2022/02/13 00:23:26;;;;;;;;;10.25;9.25;;;;;20.21;32.79;101632.50;5076596;27;52059;-46
2022/02/13 00:25:51;;;;;;;;;6.25;6.25;;;;;20.21;33.12;101631.66;5076323;27;51106;-49
2022/02/13 00:28:17;;;;;;;;;8.50;8.50;;;;;20.19;32.79;101623.63;5076743;27;51087;-45
2022/02/13 00:30:46;;;;;;;;;10.00;9.25;;;;;20.18;33.32;101628.28;5075711;27;51087;-44
2022/02/13 00:33:13;;;;;;;;;10.50;8.50;;;;;20.17;32.80;101615.56;5092129;27;51414;-47
2022/02/13 00:35:38;;;;;;;;;12.00;10.25;;;;;20.16;33.14;101608.38;5075838;27;51438;-44
2022/02/13 00:38:04;;;;;;;;;9.00;8.75;;;;;20.16;32.92;101608.38;5077165;27;51064;-44
2022/02/13 00:40:30;;;;;;;;;9.50;9.50;;;;;20.13;33.22;101603.28;5075872;27;52202;-45
2022/02/13 00:42:55;;;;;;;;;8.00;7.00;;;;;20.12;32.97;101589.75;5076109;27;51095;-47
2022/02/13 00:45:21;;;;;;;;;9.00;8.00;;;;;20.12;33.08;101596.09;5074808;28;51320;-50
2022/02/13 00:47:46;;;;;;;;;10.00;9.00;;;;;20.10;33.07;101584.41;5076205;27;51018;-43
2022/02/13 00:50:11;;;;;;;;;9.25;7.00;;;;;20.09;32.92;101579.97;5074095;27;51792;-46
2022/02/13 00:52:37;;;;;;;;;9.75;9.00;;;;;20.10;33.08;101575.31;5091404;27;51244;-44
2022/02/13 00:55:02;;;;;;;;;9.00;9.00;;;;;20.09;33.29;101576.38;5076645;27;50939;-48
2022/02/13 00:57:28;;;;;;;;;9.25;9.00;;;;;20.08;33.18;101574.66;5075814;27;50957;-46
2022/02/13 00:59:53;;;;;;;;;8.75;8.75;;;;;20.07;32.99;101572.97;5075552;27;50995;-43
2022/02/13 01:02:18;;;;;;;;;9.00;9.00;;;;;20.06;33.17;101574.03;5075462;27;51238;-43
2022/02/13 01:04:44;;;;;;;;;12.00;9.50;;;;;20.04;33.41;101570.63;5076309;27;50970;-44
2022/02/13 01:07:09;;;;;;;;;12.50;8.50;;;;;20.02;32.82;101568.09;5075837;27;50878;-44
2022/02/13 01:09:34;;;;;;;;;7.00;7.00;;;;;20.01;32.88;101563.66;5090915;27;54095;-43
2022/02/13 01:12:00;;;;;;;;;8.00;7.75;;;;;20.01;33.20;101566.41;5076091;27;50996;-44
2022/02/13 01:14:25;;;;;;;;;7.25;7.25;;;;;20.00;33.18;101558.31;5075826;27;51195;-45
2022/02/13 01:16:51;;;;;;;;;9.00;9.00;;;;;19.99;33.28;101564.88;5075474;27;51234;-49
2022/02/13 01:19:16;;;;;;;;;8.25;8.25;;;;;19.98;33.14;101565.94;5075038;27;51191;-45
2022/02/13 01:21:41;;;;;;;;;8.25;7.75;;;;;19.98;33.54;101552.19;5074954;27;51113;-46
2022/02/13 01:24:07;;;;;;;;;9.50;7.75;;;;;19.97;33.35;101553.22;5075095;28;51462;-45
2022/02/13 01:26:32;;;;;;;;;9.00;8.00;;;;;19.96;33.29;101555.13;5075959;27;51084;-44
2022/02/13 01:28:58;;;;;;;;;10.50;8.00;;;;;19.96;33.23;101543.28;5074976;27;51163;-44
2022/02/13 01:31:23;;;;;;;;;10.50;8.50;;;;;19.94;33.45;101543.50;5074907;27;51158;-46
2022/02/13 01:33:49;;;;;;;;;10.00;8.00;;;;;19.94;33.16;101532.50;5074554;27;51456;-44
2022/02/13 01:36:14;;;;;;;;;8.00;8.00;;;;;19.92;33.15;101529.09;5075814;27;51249;-45
2022/02/13 01:38:39;;;;;;;;;9.25;8.25;;;;;19.92;33.42;101537.34;5072172;27;51924;-43
2022/02/13 01:41:06;;;;;;;;;12.00;8.75;;;;;19.91;33.44;101534.81;5074961;27;51146;-45
2022/02/13 01:43:31;;;;;;;;;10.50;7.75;;;;;19.91;33.46;101532.91;5075489;28;50986;-45
2022/02/13 01:45:57;;;;;;;;;9.00;8.00;;;;;19.90;33.52;101533.94;5075377;27;50987;-43
2022/02/13 01:48:22;;;;;;;;;8.75;8.75;;;;;19.90;33.31;101533.94;5075273;27;51689;-47
2022/02/13 01:50:50;;;;;;;;;9.25;7.50;;;;;19.88;33.04;101528.63;5075492;27;51143;-44
2022/02/13 01:53:16;;;;;;;;;11.50;8.50;;;;;19.87;33.40;101534.34;5075229;27;51136;-43
2022/02/13 01:55:45;;;;;;;;;8.00;7.50;;;;;19.85;33.13;101531.81;5075019;28;51048;-45
2022/02/13 01:58:10;;;;;;;;;6.50;6.50;;;;;19.85;33.12;101530.97;5074458;27;50964;-45
2022/02/13 02:00:36;;;;;;;;;11.00;8.50;;;;;19.84;33.29;101532.00;5074695;27;51193;-43
2022/02/13 02:03:01;;;;;;;;;12.25;9.00;;;;;19.84;33.28;101534.75;5075123;27;51174;-44
2022/02/13 02:05:26;;;;;;;;;6.75;6.75;;;;;19.81;33.42;101525.03;5074671;27;51218;-44
2022/02/13 02:07:52;;;;;;;;;10.25;8.25;;;;;19.81;33.35;101526.94;5075121;27;53881;-45
2022/02/13 02:10:21;;;;;;;;;7.75;7.00;;;;;19.79;33.13;101524.34;5074704;27;51016;-44
2022/02/13 02:12:47;;;;;;;;;6.50;6.25;;;;;19.78;33.46;101510.81;5075693;27;51210;-49
2022/02/13 02:15:13;;;;;;;;;9.75;8.75;;;;;19.77;33.48;101512.72;5076391;27;51034;-43
2022/02/13 02:17:38;;;;;;;;;9.00;6.00;;;;;19.76;33.39;101510.16;5075876;27;50990;-44
2022/02/13 02:20:04;;;;;;;;;7.50;7.00;;;;;19.75;33.34;101508.47;5073264;27;51202;-43
2022/02/13 02:22:29;;;;;;;;;10.00;9.00;;;;;19.73;33.33;101503.19;5075475;27;51092;-43
2022/02/13 02:24:55;;;;;;;;;8.25;7.25;;;;;19.73;33.12;101494.09;5075578;27;51441;-44
2022/02/13 02:27:20;;;;;;;;;7.25;7.25;;;;;19.71;33.28;101486.03;5074336;27;52336;-44
2022/02/13 02:29:45;;;;;;;;;7.75;7.75;;;;;19.71;33.31;101482.44;5073818;27;51168;-45
2022/02/13 02:32:11;;;;;;;;;7.25;7.00;;;;;19.68;33.23;101475.44;5074420;27;51187;-45
2022/02/13 02:34:41;;;;;;;;;11.50;7.75;;;;;19.69;33.20;101468.03;5074826;27;51142;-45
2022/02/13 02:37:07;;;;;;;;;7.00;7.00;;;;;19.68;33.21;101458.09;5070327;28;51854;-45
2022/02/13 02:39:33;;;;;;;;;7.50;7.25;;;;;19.65;33.23;101448.34;5074274;28;51171;-45
2022/02/13 02:41:59;;;;;;;;;8.00;8.00;;;;;19.64;33.34;101440.31;5073464;27;51290;-43
2022/02/13 02:44:25;;;;;;;;;6.75;6.75;;;;;19.63;33.40;101442.22;5078592;27;51123;-48
2022/02/13 02:46:50;;;;;;;;;9.75;7.75;;;;;19.62;33.43;101440.53;5078166;27;51031;-43
2022/02/13 02:49:16;;;;;;;;;6.50;6.50;;;;;19.60;33.39;101437.97;5076519;27;51061;-43
2022/02/13 02:51:41;;;;;;;;;7.75;7.75;;;;;19.60;33.15;101432.50;5077355;27;51232;-43
2022/02/13 02:54:06;;;;;;;;;8.75;7.00;;;;;19.58;33.13;101426.31;5078679;27;51178;-45
2022/02/13 02:56:32;;;;;;;;;6.50;6.50;;;;;19.57;33.37;101435.63;5078003;27;50983;-46
2022/02/13 02:58:57;;;;;;;;;8.50;8.00;;;;;19.57;33.12;101434.78;5077382;27;51079;-45
2022/02/13 03:01:22;;;;;;;;;9.00;7.00;;;;;19.55;33.52;101429.47;5077260;27;51178;-46
2022/02/13 03:03:48;;;;;;;;;8.25;8.00;;;;;19.54;32.98;101433.25;5077627;27;51050;-45
2022/02/13 03:06:13;;;;;;;;;8.00;7.00;;;;;19.54;33.36;101435.16;5076917;27;51694;-47
2022/02/13 03:08:39;;;;;;;;;7.25;7.00;;;;;19.54;33.19;101432.41;5077295;27;51182;-45
2022/02/13 03:11:05;;;;;;;;;7.00;7.00;;;;;19.52;33.21;101429.88;5076679;27;51198;-43
2022/02/13 03:13:30;;;;;;;;;11.75;8.50;;;;;19.51;33.27;101425.41;5077543;27;51165;-43
2022/02/13 03:15:56;;;;;;;;;8.00;8.00;;;;;19.50;33.31;101431.13;5077801;27;51169;-44
2022/02/13 03:18:22;;;;;;;;;11.00;9.00;;;;;19.49;33.24;101427.53;5077585;27;51244;-46
2022/02/13 03:20:49;;;;;;;;;8.25;7.00;;;;;19.49;33.16;101426.69;5077271;27;51206;-43
2022/02/13 03:23:16;;;;;;;;;8.50;8.50;;;;;19.48;33.08;101416.72;5077768;28;51095;-44
2022/02/13 03:25:42;;;;;;;;;6.75;6.75;;;;;19.47;33.23;101409.53;5077855;27;51946;-45
2022/02/13 03:28:08;;;;;;;;;8.00;8.00;;;;;19.46;33.22;101405.94;5076700;28;51125;-43
2022/02/13 03:30:34;;;;;;;;;8.50;7.50;;;;;19.46;33.11;101394.94;5076766;27;50993;-43
2022/02/13 03:32:59;;;;;;;;;8.25;6.75;;;;;19.45;33.31;101396.00;5078087;27;51357;-43
2022/02/13 03:35:24;;;;;;;;;8.00;7.25;;;;;19.44;33.13;101388.81;5076737;27;52094;-47
2022/02/13 03:37:50;;;;;;;;;10.00;8.00;;;;;19.43;33.33;101389.84;5077020;27;51093;-44
2022/02/13 03:40:17;;;;;;;;;8.00;8.00;;;;;19.42;33.13;101390.91;5076811;27;51318;-45
2022/02/13 03:42:43;;;;;;;;;11.25;8.00;;;;;19.41;33.29;101389.22;5077048;27;51332;-43
2022/02/13 03:45:10;;;;;;;;;7.75;7.00;;;;;19.41;33.31;101385.63;5077161;27;51084;-43
2022/02/13 03:47:36;;;;;;;;;7.50;7.50;;;;;19.38;33.58;101378.59;5076886;27;51529;-44
2022/02/13 03:50:02;;;;;;;;;7.75;7.00;;;;;19.37;33.50;101376.91;5076035;28;51525;-45
2022/02/13 03:52:28;;;;;;;;;9.75;7.50;;;;;19.39;33.11;101384.97;5077185;27;51217;-44
2022/02/13 03:54:53;;;;;;;;;10.50;10.25;;;;;19.37;33.40;101360.44;5077365;27;51095;-46
2022/02/13 03:57:18;;;;;;;;;11.25;8.00;;;;;19.37;33.16;101367.81;5077156;27;51196;-43
2022/02/13 03:59:43;;;;;;;;;6.25;6.25;;;;;19.36;33.44;101372.47;5076737;27;51109;-43
2022/02/13 04:02:09;;;;;;;;;8.75;7.75;;;;;19.35;33.36;101369.94;5077287;27;51221;-45
2022/02/13 04:04:34;;;;;;;;;10.50;8.25;;;;;19.34;33.42;101366.34;5077159;27;50973;-43
2022/02/13 04:06:59;;;;;;;;;11.25;9.00;;;;;19.33;33.24;101368.25;5076625;27;51084;-43
2022/02/13 04:09:25;;;;;;;;;8.00;8.00;;;;;19.33;33.16;101381.13;5077500;27;51059;-46
2022/02/13 04:11:50;;;;;;;;;9.00;7.75;;;;;19.31;33.13;101373.09;5077803;27;51348;-45
2022/02/13 04:14:15;;;;;;;;;9.50;8.25;;;;;19.31;33.19;101375.00;5076941;27;51755;-46
2022/02/13 04:16:41;;;;;;;;;6.25;6.00;;;;;19.30;33.48;101370.56;5076939;27;51171;-46
2022/02/13 04:19:06;;;;;;;;;7.75;7.00;;;;;19.30;33.28;101367.81;5077372;27;51164;-44
2022/02/13 04:21:31;;;;;;;;;9.75;9.75;;;;;19.28;33.25;101367.16;5076830;27;51185;-46
2022/02/13 04:23:57;;;;;;;;;9.25;7.25;;;;;19.28;33.26;101361.66;5077196;27;51299;-45
2022/02/13 04:26:22;;;;;;;;;9.00;5.25;;;;;19.26;33.33;101356.34;5076943;27;51057;-43
2022/02/13 04:28:48;;;;;;;;;8.75;8.25;;;;;19.25;33.60;101357.41;5076753;27;51144;-45
2022/02/13 04:31:13;;;;;;;;;11.00;8.75;;;;;19.26;33.45;101356.34;5076467;27;51314;-43
2022/02/13 04:33:39;;;;;;;;;8.25;8.25;;;;;19.26;33.58;101356.34;5072547;28;51144;-45
2022/02/13 04:36:05;;;;;;;;;9.00;9.00;;;;;19.24;33.63;101350.22;5076637;27;51143;-44
2022/02/13 04:38:31;;;;;;;;;8.50;8.50;;;;;19.23;33.32;101348.53;5076414;27;52412;-43
2022/02/13 04:40:56;;;;;;;;;9.75;7.50;;;;;19.22;33.38;101340.50;5076820;27;51129;-50
2022/02/13 04:43:22;;;;;;;;;11.00;10.25;;;;;19.22;33.53;101340.50;5076500;27;51730;-44
2022/02/13 04:45:47;;;;;;;;;10.25;9.00;;;;;19.21;33.25;101336.91;5076792;27;51055;-43
2022/02/13 04:48:12;;;;;;;;;9.25;9.25;;;;;19.20;33.32;101326.13;5076144;27;51242;-44
2022/02/13 04:50:38;;;;;;;;;7.00;7.00;;;;;19.20;33.45;101326.13;5074871;27;50989;-45
2022/02/13 04:53:04;;;;;;;;;7.25;7.25;;;;;19.18;33.36;101312.59;5075780;28;51211;-45
2022/02/13 04:55:29;;;;;;;;;10.25;10.25;;;;;19.16;33.42;101309.19;5076581;27;51185;-43
2022/02/13 04:57:55;;;;;;;;;8.75;7.75;;;;;19.16;33.59;101311.94;5075628;27;51119;-44
2022/02/13 05:00:20;;;;;;;;;7.25;6.00;;;;;19.16;33.43;101300.09;5092783;27;51209;-47
2022/02/13 05:02:46;;;;;;;;;7.50;7.50;;;;;19.14;33.30;101300.31;5075964;27;51659;-43
2022/02/13 05:05:12;;;;;;;;;8.50;8.00;;;;;19.14;33.51;101304.94;5075228;28;51116;-46
2022/02/13 05:07:38;;;;;;;;;8.50;7.25;;;;;19.13;33.44;101293.13;5076081;27;51122;-43
2022/02/13 05:10:04;;;;;;;;;9.25;9.25;;;;;19.11;33.65;101295.22;5075398;27;51151;-43
2022/02/13 05:12:29;;;;;;;;;9.50;6.50;;;;;19.11;33.33;101289.72;5076018;27;52134;-45
2022/02/13 05:14:55;;;;;;;;;8.50;8.50;;;;;19.10;33.51;101281.69;5076017;27;51122;-44
2022/02/13 05:17:21;;;;;;;;;8.75;8.50;;;;;19.09;33.38;101275.38;5076564;27;51478;-44
2022/02/13 05:19:47;;;;;;;;;8.25;8.25;;;;;19.09;33.51;101274.50;5075990;27;51689;-44
2022/02/13 05:22:13;;;;;;;;;8.75;8.75;;;;;19.09;33.43;101280.00;5075798;28;51960;-46
2022/02/13 05:24:38;;;;;;;;;8.75;7.00;;;;;19.07;33.56;101276.59;5076120;27;51075;-45
2022/02/13 05:27:04;;;;;;;;;9.25;6.25;;;;;19.08;33.57;101270.06;5075557;27;51222;-46
2022/02/13 05:29:31;;;;;;;;;7.50;7.00;;;;;19.04;33.30;101264.97;5075819;27;50970;-46
2022/02/13 05:31:56;;;;;;;;;10.25;8.25;;;;;19.04;33.31;101258.63;5075546;27;52876;-44
2022/02/13 05:34:21;;;;;;;;;8.75;7.00;;;;;19.04;33.30;101259.47;5075808;27;51870;-43
2022/02/13 05:36:47;;;;;;;;;7.00;6.75;;;;;19.02;33.33;101256.09;5074474;28;51058;-43
2022/02/13 05:39:12;;;;;;;;;8.25;8.25;;;;;19.02;33.56;101256.09;5075163;27;51476;-46
2022/02/13 05:41:38;;;;;;;;;11.25;7.00;;;;;19.02;33.33;101258.00;5075712;27;51997;-43
2022/02/13 05:44:03;;;;;;;;;8.00;5.25;;;;;19.01;33.34;101253.56;5075714;27;51087;-44
2022/02/13 05:46:29;;;;;;;;;7.50;7.50;;;;;19.01;33.38;101248.06;5075784;27;51732;-43
2022/02/13 05:48:56;;;;;;;;;5.50;4.25;;;;;19.00;33.32;101240.88;5073587;28;51181;-42
2022/02/13 05:51:23;;;;;;;;;9.25;8.25;;;;;18.99;33.32;101251.00;5075231;27;52060;-43
2022/02/13 05:53:52;;;;;;;;;8.50;7.75;;;;;18.98;33.49;101254.81;5074894;27;51041;-44
2022/02/13 05:56:18;;;;;;;;;7.50;7.50;;;;;18.98;33.48;101243.84;5075849;27;51187;-47
2022/02/13 05:58:44;;;;;;;;;7.50;7.00;;;;;18.96;33.54;101240.41;5075388;27;51228;-45
2022/02/13 06:01:10;;;;;;;;;9.00;9.00;;;;;18.97;33.39;101238.56;5075036;28;51093;-45
2022/02/13 06:03:35;;;;;;;;;9.25;8.00;;;;;18.96;33.26;101234.06;5075695;27;51123;-43
2022/02/13 06:06:01;;;;;;;;;7.50;7.50;;;;;18.95;33.50;101233.22;5075435;27;51344;-44
2022/02/13 06:08:28;;;;;;;;;8.75;7.00;;;;;18.95;33.37;101237.88;5075336;27;51193;-43
2022/02/13 06:10:53;;;;;;;;;10.00;9.00;;;;;18.93;33.30;101235.34;5074484;27;51784;-48
2022/02/13 06:13:18;;;;;;;;;6.25;5.75;;;;;18.93;33.63;101238.09;5075479;27;52362;-43
2022/02/13 06:15:44;;;;;;;;;7.00;5.25;;;;;18.91;33.50;101231.97;5073748;28;51116;-44
2022/02/13 06:18:09;;;;;;;;;8.25;7.00;;;;;18.91;33.46;101234.69;5074992;27;51387;-44
2022/02/13 06:20:36;;;;;;;;;6.50;6.00;;;;;18.91;33.42;101228.38;5074793;27;51967;-46
2022/02/13 06:23:01;;;;;;;;;8.75;7.50;;;;;18.90;33.31;101229.41;5075294;27;51751;-43
2022/02/13 06:25:27;;;;;;;;;8.50;7.50;;;;;18.89;33.28;101231.31;5075211;27;51117;-43
2022/02/13 06:27:52;;;;;;;;;8.25;7.50;;;;;18.89;33.32;101235.97;5075152;27;51078;-44
2022/02/13 06:30:17;;;;;;;;;8.00;8.00;;;;;18.88;33.16;101232.38;5074379;27;51787;-43
2022/02/13 06:32:43;;;;;;;;;9.00;8.00;;;;;18.88;33.42;101239.75;5075414;27;51001;-44
2022/02/13 06:35:08;;;;;;;;;6.00;6.00;;;;;18.87;33.21;101240.81;5075164;27;51190;-44
2022/02/13 06:37:34;;;;;;;;;9.75;6.50;;;;;18.86;33.48;101237.22;5074507;27;51247;-43
2022/02/13 06:39:59;;;;;;;;;7.25;7.25;;;;;18.83;33.27;101221.13;5074754;27;51849;-45
2022/02/13 06:42:25;;;;;;;;;6.50;6.50;;;;;18.84;33.42;101230.22;5074881;27;51251;-43
2022/02/13 06:44:50;;;;;;;;;7.00;7.00;;;;;18.83;33.54;101223.03;5075201;27;51242;-43
2022/02/13 06:47:16;;;;;;;;;7.00;6.50;;;;;18.82;33.35;101219.44;5073818;27;51131;-45
2022/02/13 06:49:41;;;;;;;;;6.50;6.50;;;;;18.82;33.13;101219.44;5072920;27;51187;-45
2022/02/13 06:52:07;;;;;;;;;8.00;7.00;;;;;18.81;33.13;101214.16;5074653;27;51057;-43
2022/02/13 06:54:32;;;;;;;;;8.00;6.25;;;;;18.81;33.51;101208.66;5068048;28;51072;-44
2022/02/13 06:56:57;;;;;;;;;12.50;7.75;;;;;18.81;33.42;101200.44;5071511;28;51010;-44
2022/02/13 06:59:23;;;;;;;;;6.50;5.50;;;;;18.78;33.29;101190.72;5074107;27;51187;-42
2022/02/13 07:01:49;;;;;;;;;7.00;7.00;;;;;18.79;33.34;101178.69;5074879;27;51028;-43
2022/02/13 07:04:15;;;;;;;;;7.00;5.50;;;;;18.77;33.26;101178.03;5074757;27;51204;-43
2022/02/13 07:06:40;;;;;;;;;8.25;6.50;;;;;18.78;33.34;101174.25;5074956;27;51039;-43
2022/02/13 07:09:06;;;;;;;;;7.75;7.75;;;;;18.75;33.50;101174.63;5074647;27;51791;-43
2022/02/13 07:11:32;;;;;;;;;0.50;0.50;;;;;18.76;33.38;101170.88;5074761;27;51173;-48
2022/02/13 07:13:57;;;;;;;;;9.75;7.00;;;;;18.74;33.13;101172.94;5074707;27;51140;-44
2022/02/13 07:16:23;;;;;;;;;8.00;6.50;;;;;18.74;33.36;101172.94;5074918;27;51219;-47
2022/02/13 07:18:48;;;;;;;;;6.00;5.75;;;;;18.73;33.64;101171.25;5073774;27;51970;-43
2022/02/13 07:21:14;;;;;;;;;8.50;8.50;;;;;18.73;33.28;101177.59;5073350;27;51036;-48
2022/02/13 07:23:39;;;;;;;;;10.50;7.50;;;;;18.72;33.36;101178.63;5074421;27;51214;-43
2022/02/13 07:26:04;;;;;;;;;7.00;7.00;;;;;18.72;33.28;101180.53;5073141;27;51034;-43
2022/02/13 07:31:14;;;;;;;;;11.00;11.00;;;;;18.69;33.25;101181.78;5077903;28;51464;-44
2022/02/13 07:33:39;;;;;;;;;8.25;8.00;;;;;18.70;33.25;101174.41;5076736;28;52445;-45
2022/02/13 07:36:04;;;;;;;;;7.00;6.00;;;;;18.68;33.41;101177.34;5077189;27;51227;-45
2022/02/13 07:38:30;;;;;;;;;8.00;7.00;;;;;18.68;33.43;101182.00;5076826;27;51107;-46
2022/02/13 07:40:55;;;;;;;;;11.50;9.50;;;;;18.68;32.60;101182.00;5077590;27;51329;-48
2022/02/13 07:43:20;;;;;;;;;18.00;15.00;;;;;18.67;32.14;101188.53;5077413;27;51221;-48
2022/02/13 07:45:45;;;;;;;;;17.50;15.50;;;;;18.64;31.59;101186.16;5065954;27;52613;-46
2022/02/13 07:48:11;;;;;;;;;17.50;16.75;;;;;18.59;31.18;101192.25;5076528;27;51157;-44
2022/02/13 07:50:37;;;;;;;;;20.25;17.50;;;;;18.56;30.69;101186.34;5090087;27;51068;-46
2022/02/13 07:53:03;;;;;;;;;21.25;17.50;;;;;18.50;30.58;101177.00;5076113;28;51289;-47
2022/02/13 07:55:31;;;;;;;;;16.00;16.00;;;;;18.45;30.19;101171.28;5075730;28;51064;-49
2022/02/13 07:57:57;;;;;;;;;23.00;17.75;;;;;18.41;29.90;101164.47;5068810;28;52832;-45
2022/02/13 08:00:22;;;;;;;;;17.75;16.50;;;;;18.36;30.25;101156.88;5071328;27;51041;-44
2022/02/13 08:02:47;;;;;;;;;16.75;16.00;;;;;18.31;29.94;101140.16;5072884;27;51177;-42
2022/02/13 08:05:13;;;;;;;;;15.75;14.75;;;;;18.30;30.06;101143.94;5071224;27;51545;-43
2022/02/13 08:07:46;;;;;;;;;14.25;12.50;;;;;18.34;30.25;101125.19;5076227;27;51025;-43
2022/02/13 08:10:12;;;;;;;;;13.25;13.00;;;;;18.39;30.43;101125.44;5072100;27;51781;-46
2022/02/13 08:12:38;;;;;;;;;13.25;12.50;;;;;18.46;31.11;101120.84;5075827;27;51192;-45
2022/02/13 08:15:03;;;;;;;;;13.50;12.00;;;;;18.55;30.88;101114.16;5071349;27;51369;-44
2022/02/13 08:17:29;;;;;;;;;14.00;13.75;;;;;18.63;31.28;101107.63;5073396;28;51855;-43
2022/02/13 08:19:54;;;;;;;;;14.75;12.50;;;;;18.70;31.09;101100.31;5070695;27;51131;-46
2022/02/13 08:22:19;;;;;;;;;11.50;10.75;;;;;18.79;31.51;101099.09;5075160;28;51132;-49
2022/02/13 08:24:46;;;;;;;;;12.00;10.50;;;;;18.87;31.34;101085.19;5071888;27;51029;-42
2022/02/13 08:27:12;;;;;;;;;11.25;10.50;;;;;18.96;31.23;101085.84;5074689;27;51821;-42
2022/02/13 08:29:37;;;;;;;;;14.75;13.00;;;;;19.05;31.47;101092.84;5075530;27;51423;-42
2022/02/13 08:32:03;;;;;;;;;13.00;11.50;;;;;19.15;31.48;101093.28;5074206;27;51234;-43
2022/02/13 08:34:28;;;;;;;;;10.25;9.50;;;;;19.26;31.36;101091.81;5088220;27;51734;-42
2022/02/13 08:36:53;;;;;;;;;11.50;11.25;;;;;19.36;31.92;101099.66;5075658;27;51074;-43
2022/02/13 08:39:19;;;;;;;;;10.00;9.25;;;;;19.45;32.04;101096.50;5075220;27;51202;-44
2022/02/13 08:41:44;;;;;;;;;10.25;9.25;;;;;19.54;32.08;101091.66;5073167;27;51260;-42
2022/02/13 08:44:09;;;;;;;;;12.75;10.50;;;;;19.63;31.82;101084.09;5071293;27;51236;-46
2022/02/13 08:46:35;;;;;;;;;12.00;10.50;;;;;19.71;31.91;101079.25;5073237;28;51055;-42
2022/02/13 08:49:01;;;;;;;;;13.00;11.50;;;;;19.79;31.69;101075.41;5069452;27;51155;-42
2022/02/13 08:51:28;;;;;;;;;11.25;10.50;;;;;19.87;31.75;101078.81;5071114;28;51662;-47
2022/02/13 08:53:53;;;;;;;;;9.00;9.00;;;;;19.95;31.49;101069.50;5070751;27;51116;-44
2022/02/13 08:56:18;;;;;;;;;11.75;9.50;;;;;20.05;31.78;101066.31;5072704;27;51137;-45
2022/02/13 08:58:44;;;;;;;;;11.50;10.50;;;;;20.11;31.40;101065.44;5075100;27;51153;-46
2022/02/13 09:01:10;;;;;;;;;12.00;11.50;;;;;20.21;31.48;101065.00;5071696;27;51216;-46
2022/02/13 09:03:35;;;;;;;;;9.25;8.00;;;;;20.26;31.27;101051.47;5073463;27;51469;-48
2022/02/13 09:06:00;;;;;;;;;10.00;9.00;;;;;20.29;31.12;101051.84;5075084;27;51134;-44
2022/02/13 09:08:26;;;;;;;;;14.25;11.50;;;;;20.31;31.09;101052.47;5076438;27;51055;-45
2022/02/13 09:10:51;;;;;;;;;15.50;12.25;;;;;20.32;30.94;101054.19;5074249;27;51257;-44
2022/02/13 09:13:16;;;;;;;;;9.75;9.50;;;;;20.36;31.09;101054.59;5075844;27;51031;-47
2022/02/13 09:15:42;;;;;;;;;11.75;9.00;;;;;20.40;30.89;101047.59;5072869;28;51773;-44
2022/02/13 09:18:12;;;;;;;;;15.00;13.50;;;;;20.45;30.80;101042.34;5075187;27;50982;-47
2022/02/13 09:20:40;;;;;;;;;10.25;9.25;;;;;20.50;30.76;101038.91;5075127;27;51191;-44
2022/02/13 09:23:05;;;;;;;;;11.75;10.75;;;;;20.54;30.74;101032.78;5073005;28;51179;-44
2022/02/13 09:25:30;;;;;;;;;10.00;10.00;;;;;20.60;30.81;101033.78;5070289;27;52245;-46
2022/02/13 09:27:56;;;;;;;;;11.25;10.00;;;;;20.62;30.90;101024.25;5076065;27;51157;-48
2022/02/13 09:30:21;;;;;;;;;10.50;9.00;;;;;20.65;30.89;101015.56;5071247;27;51634;-46
2022/02/13 09:32:46;;;;;;;;;11.00;9.75;;;;;20.65;30.84;101011.97;5073300;27;51174;-45
2022/02/13 09:35:12;;;;;;;;;9.00;9.00;;;;;20.66;30.81;100998.00;5070778;28;51276;-42
2022/02/13 09:37:37;;;;;;;;;9.00;9.00;;;;;20.66;30.58;100989.72;5072989;28;51067;-45
2022/02/13 09:40:04;;;;;;;;;6.75;6.25;;;;;20.66;30.88;100970.47;5071070;27;51207;-44
2022/02/13 09:42:31;;;;;;;;;8.25;8.25;;;;;20.68;30.94;100965.56;5071119;27;51351;-42
2022/02/13 09:44:58;;;;;;;;;8.25;8.00;;;;;20.72;30.73;100966.81;5069203;27;51146;-43
2022/02/13 09:47:25;;;;;;;;;11.25;10.25;;;;;20.76;31.08;100958.97;5074158;27;51313;-47
2022/02/13 09:49:50;;;;;;;;;11.50;10.25;;;;;20.80;30.77;100954.69;5073209;27;51127;-47
2022/02/13 09:52:16;;;;;;;;;12.25;9.50;;;;;20.87;30.91;100938.16;5072336;28;51358;-44
2022/02/13 09:54:41;;;;;;;;;8.00;7.75;;;;;20.91;30.54;100929.19;5066669;28;52302;-44
2022/02/13 09:59:59;;;;;;;;;7.00;7.00;;;;;21.03;30.60;100915.56;5072358;28;51193;-44
2022/02/13 10:02:32;;;;;;;;;10.50;8.75;;;;;21.06;30.90;100917.03;5071959;27;51344;-48
2022/02/13 10:04:57;;;;;;;;;11.00;9.50;;;;;21.08;31.00;100912.97;5073539;27;52807;-45
2022/02/13 10:07:23;;;;;;;;;9.50;8.25;;;;;21.11;31.18;100909.78;5069375;27;51367;-44
2022/02/13 10:09:57;;;;;;;;;12.75;9.00;;;;;21.15;30.86;100897.22;5070914;27;51157;-44
2022/02/13 10:12:30;;;;;;;;;7.75;7.75;;;;;21.19;31.21;100892.13;5073020;28;51245;-46
2022/02/13 10:14:55;;;;;;;;;7.00;7.00;;;;;21.21;31.22;100896.34;5070255;27;52056;-44
2022/02/13 10:17:20;;;;;;;;;63.00;49.75;;;;;21.25;31.86;100883.78;5072003;27;51453;-43
2022/02/13 10:19:55;;;;;;;;;44.75;39.50;;;;;21.29;31.84;100881.47;5064353;28;51194;-45
2022/02/13 10:22:36;;;;;;;;;47.50;40.50;;;;;21.32;32.08;100870.81;5071305;27;51183;-46
2022/02/13 10:25:14;;;;;;;;;42.00;37.25;;;;;21.35;32.20;100863.16;5071716;28;52018;-48
2022/02/13 10:27:47;;;;;;;;;37.00;32.50;;;;;21.39;31.62;100856.16;5070833;27;51178;-45
2022/02/13 10:30:13;;;;;;;;;32.75;31.50;;;;;21.43;32.10;100862.88;5072332;28;51203;-46
2022/02/13 10:32:42;;;;;;;;;27.00;27.00;;;;;21.46;31.59;100854.16;5067907;28;51307;-49
2022/02/13 10:35:13;;;;;;;;;33.25;28.00;;;;;21.50;31.47;100859.00;5071318;28;52547;-46
2022/02/13 10:37:55;;;;;;;;;23.50;21.75;;;;;21.54;31.57;100864.88;5065952;28;51473;-44
2022/02/13 10:40:26;;;;;;;;;22.25;22.25;;;;;21.56;32.21;100858.06;5057103;28;51135;-44
2022/02/13 10:43:03;;;;;;;;;19.75;17.75;;;;;21.59;32.10;100860.38;5068824;28;51325;-43
2022/02/13 10:45:30;;;;;;;;;17.00;15.75;;;;;21.61;31.83;100846.34;5066535;28;51221;-47
2022/02/13 10:48:01;;;;;;;;;14.25;14.25;;;;;21.64;31.73;100845.03;5066371;27;51112;-47
2022/02/13 10:50:30;;;;;;;;;12.50;12.50;;;;;21.66;32.31;100849.25;5070595;28;50963;-46
2022/02/13 10:52:59;;;;;;;;;14.00;14.00;;;;;21.69;32.35;100843.31;5074131;27;51445;-45
2022/02/13 10:55:36;;;;;;;;;11.50;10.75;;;;;21.70;31.88;100828.44;5070540;27;52206;-45
2022/02/13 10:58:03;;;;;;;;;13.75;11.50;;;;;21.73;32.19;100836.25;5070653;27;51056;-48
2022/02/13 11:00:31;;;;;;;;;12.00;11.25;;;;;21.77;32.47;100818.16;5070147;28;51378;-43
2022/02/13 11:03:06;;;;;;;;;10.25;10.25;;;;;21.81;32.54;100816.63;5070441;28;51289;-45
2022/02/13 11:05:32;;;;;;;;;13.50;9.00;;;;;21.85;31.88;100819.75;5071408;27;51883;-44
2022/02/13 11:08:06;;;;;;;;;8.00;5.75;;;;;21.87;32.29;100806.56;5071507;27;51367;-45
2022/02/13 11:10:36;;;;;;;;;12.00;11.50;;;;;21.89;32.25;100791.50;5086563;27;51103;-44
2022/02/13 11:13:03;;;;;;;;;9.25;8.75;;;;;21.92;32.27;100792.94;5071852;28;51190;-45
2022/02/13 11:15:31;;;;;;;;;9.50;8.50;;;;;21.94;31.78;100785.28;5069283;28;51619;-44
2022/02/13 11:18:08;;;;;;;;;9.25;7.50;;;;;21.97;31.88;100783.94;5075634;27;51614;-46
2022/02/13 11:20:35;;;;;;;;;11.50;9.00;;;;;22.01;31.76;100777.75;5067119;27;51163;-45